sensor_id;sensor_type;location;lat;lon;timestamp;P1;durP1;ratioP1;P2;durP2;ratioP2
39190;SDS011;24916;51.676;6.614;2023-03-14T00:02:19;9.98;;;1.70;;
39190;SDS011;24916;51.676;6.614;2023-03-14T00:04:45;5.43;;;1.55;;
39190;SDS011;24916;51.676;6.614;2023-03-14T00:07:10;5.78;;;1.52;;
39190;SDS011;24916;51.676;6.614;2023-03-14T00:09:36;4.40;;;1.60;;
39190;SDS011;24916;51.676;6.614;2023-03-14T00:12:01;7.20;;;1.58;;
39190;SDS011;24916;51.676;6.614;2023-03-14T00:14:28;4.07;;;1.58;;
39190;SDS011;24916;51.676;6.614;2023-03-14T00:16:53;7.18;;;1.70;;
39190;SDS011;24916;51.676;6.614;2023-03-14T00:19:18;5.70;;;1.52;;
39190;SDS011;24916;51.676;6.614;2023-03-14T00:21:43;7.13;;;1.40;;
39190;SDS011;24916;51.676;6.614;2023-03-14T00:24:09;8.07;;;1.48;;
39190;SDS011;24916;51.676;6.614;2023-03-14T00:26:34;7.55;;;1.52;;
39190;SDS011;24916;51.676;6.614;2023-03-14T00:28:59;9.32;;;1.60;;
39190;SDS011;24916;51.676;6.614;2023-03-14T00:31:24;6.75;;;1.40;;
39190;SDS011;24916;51.676;6.614;2023-03-14T00:33:51;7.88;;;1.63;;
39190;SDS011;24916;51.676;6.614;2023-03-14T00:36:17;5.20;;;1.48;;
39190;SDS011;24916;51.676;6.614;2023-03-14T00:38:43;8.70;;;1.73;;
39190;SDS011;24916;51.676;6.614;2023-03-14T00:41:10;8.25;;;1.40;;
39190;SDS011;24916;51.676;6.614;2023-03-14T00:43:35;7.47;;;1.55;;
39190;SDS011;24916;51.676;6.614;2023-03-14T00:46:01;5.18;;;1.60;;
39190;SDS011;24916;51.676;6.614;2023-03-14T00:48:26;7.63;;;1.42;;
39190;SDS011;24916;51.676;6.614;2023-03-14T00:50:51;9.15;;;1.55;;
39190;SDS011;24916;51.676;6.614;2023-03-14T00:53:17;6.13;;;1.50;;
39190;SDS011;24916;51.676;6.614;2023-03-14T00:55:42;3.40;;;1.33;;
39190;SDS011;24916;51.676;6.614;2023-03-14T00:58:08;5.10;;;1.20;;
39190;SDS011;24916;51.676;6.614;2023-03-14T01:00:34;7.97;;;1.73;;
39190;SDS011;24916;51.676;6.614;2023-03-14T01:03:00;6.47;;;1.70;;
39190;SDS011;24916;51.676;6.614;2023-03-14T01:05:26;4.32;;;1.08;;
39190;SDS011;24916;51.676;6.614;2023-03-14T01:07:51;7.07;;;1.63;;
39190;SDS011;24916;51.676;6.614;2023-03-14T01:10:16;6.65;;;1.80;;
39190;SDS011;24916;51.676;6.614;2023-03-14T01:12:41;6.45;;;1.48;;
39190;SDS011;24916;51.676;6.614;2023-03-14T01:15:07;10.30;;;1.50;;
39190;SDS011;24916;51.676;6.614;2023-03-14T01:17:32;10.00;;;1.58;;
39190;SDS011;24916;51.676;6.614;2023-03-14T01:19:59;8.95;;;1.50;;
39190;SDS011;24916;51.676;6.614;2023-03-14T01:22:24;4.03;;;1.30;;
39190;SDS011;24916;51.676;6.614;2023-03-14T01:24:49;6.85;;;1.70;;
39190;SDS011;24916;51.676;6.614;2023-03-14T01:27:14;7.35;;;1.60;;
39190;SDS011;24916;51.676;6.614;2023-03-14T01:29:40;3.55;;;1.30;;
39190;SDS011;24916;51.676;6.614;2023-03-14T01:32:05;9.10;;;1.27;;
39190;SDS011;24916;51.676;6.614;2023-03-14T01:34:30;5.28;;;1.40;;
39190;SDS011;24916;51.676;6.614;2023-03-14T01:36:55;6.82;;;1.58;;
39190;SDS011;24916;51.676;6.614;2023-03-14T01:39:21;10.93;;;1.35;;
39190;SDS011;24916;51.676;6.614;2023-03-14T01:41:46;4.07;;;1.27;;
39190;SDS011;24916;51.676;6.614;2023-03-14T01:44:11;5.75;;;1.35;;
39190;SDS011;24916;51.676;6.614;2023-03-14T01:51:50;8.60;;;1.20;;
39190;SDS011;24916;51.676;6.614;2023-03-14T01:54:21;8.95;;;1.58;;
39190;SDS011;24916;51.676;6.614;2023-03-14T01:56:51;9.13;;;1.50;;
39190;SDS011;24916;51.676;6.614;2023-03-14T01:59:17;6.95;;;1.45;;
39190;SDS011;24916;51.676;6.614;2023-03-14T02:01:43;4.72;;;1.13;;
39190;SDS011;24916;51.676;6.614;2023-03-14T02:04:09;4.93;;;1.13;;
39190;SDS011;24916;51.676;6.614;2023-03-14T02:06:39;2.88;;;0.93;;
39190;SDS011;24916;51.676;6.614;2023-03-14T02:09:06;5.53;;;1.00;;
39190;SDS011;24916;51.676;6.614;2023-03-14T02:11:31;6.72;;;1.30;;
39190;SDS011;24916;51.676;6.614;2023-03-14T02:13:57;6.95;;;1.30;;
39190;SDS011;24916;51.676;6.614;2023-03-14T02:16:22;7.53;;;1.23;;
39190;SDS011;24916;51.676;6.614;2023-03-14T02:18:48;3.67;;;0.90;;
39190;SDS011;24916;51.676;6.614;2023-03-14T02:21:15;7.03;;;0.95;;
39190;SDS011;24916;51.676;6.614;2023-03-14T02:26:26;8.50;;;1.40;;
39190;SDS011;24916;51.676;6.614;2023-03-14T02:28:53;5.60;;;0.98;;
39190;SDS011;24916;51.676;6.614;2023-03-14T02:31:18;6.80;;;0.90;;
39190;SDS011;24916;51.676;6.614;2023-03-14T02:33:45;5.82;;;1.05;;
39190;SDS011;24916;51.676;6.614;2023-03-14T02:36:12;6.35;;;1.00;;
39190;SDS011;24916;51.676;6.614;2023-03-14T02:41:06;4.15;;;0.90;;
39190;SDS011;24916;51.676;6.614;2023-03-14T02:43:31;9.25;;;1.10;;
39190;SDS011;24916;51.676;6.614;2023-03-14T02:45:57;4.47;;;0.88;;
39190;SDS011;24916;51.676;6.614;2023-03-14T02:48:26;5.28;;;1.15;;
39190;SDS011;24916;51.676;6.614;2023-03-14T02:50:52;4.10;;;1.10;;
39190;SDS011;24916;51.676;6.614;2023-03-14T02:53:20;4.07;;;0.90;;
39190;SDS011;24916;51.676;6.614;2023-03-14T02:55:47;4.15;;;1.00;;
39190;SDS011;24916;51.676;6.614;2023-03-14T02:58:13;5.72;;;1.10;;
39190;SDS011;24916;51.676;6.614;2023-03-14T03:00:38;5.43;;;1.48;;
39190;SDS011;24916;51.676;6.614;2023-03-14T03:03:04;6.10;;;1.25;;
39190;SDS011;24916;51.676;6.614;2023-03-14T03:05:30;4.97;;;0.98;;
39190;SDS011;24916;51.676;6.614;2023-03-14T03:07:56;3.78;;;1.10;;
39190;SDS011;24916;51.676;6.614;2023-03-14T03:10:22;4.47;;;0.95;;
39190;SDS011;24916;51.676;6.614;2023-03-14T03:12:47;6.45;;;1.38;;
39190;SDS011;24916;51.676;6.614;2023-03-14T03:15:12;6.60;;;1.25;;
39190;SDS011;24916;51.676;6.614;2023-03-14T03:17:37;6.13;;;0.90;;
39190;SDS011;24916;51.676;6.614;2023-03-14T03:20:03;7.57;;;1.42;;
39190;SDS011;24916;51.676;6.614;2023-03-14T03:22:29;10.38;;;1.50;;
39190;SDS011;24916;51.676;6.614;2023-03-14T03:24:55;10.35;;;1.50;;
39190;SDS011;24916;51.676;6.614;2023-03-14T03:27:20;9.77;;;1.52;;
39190;SDS011;24916;51.676;6.614;2023-03-14T03:29:45;9.45;;;1.50;;
39190;SDS011;24916;51.676;6.614;2023-03-14T03:32:10;11.32;;;1.50;;
39190;SDS011;24916;51.676;6.614;2023-03-14T03:34:35;4.57;;;1.05;;
39190;SDS011;24916;51.676;6.614;2023-03-14T03:37:01;8.68;;;1.67;;
39190;SDS011;24916;51.676;6.614;2023-03-14T03:39:26;8.27;;;1.30;;
39190;SDS011;24916;51.676;6.614;2023-03-14T03:41:51;6.07;;;1.50;;
39190;SDS011;24916;51.676;6.614;2023-03-14T03:44:16;9.23;;;1.13;;
39190;SDS011;24916;51.676;6.614;2023-03-14T03:46:42;9.50;;;1.45;;
39190;SDS011;24916;51.676;6.614;2023-03-14T03:49:07;7.95;;;1.27;;
39190;SDS011;24916;51.676;6.614;2023-03-14T03:51:32;7.60;;;1.40;;
39190;SDS011;24916;51.676;6.614;2023-03-14T03:53:57;6.80;;;1.20;;
39190;SDS011;24916;51.676;6.614;2023-03-14T03:56:22;8.00;;;1.90;;
39190;SDS011;24916;51.676;6.614;2023-03-14T03:58:48;9.20;;;1.60;;
39190;SDS011;24916;51.676;6.614;2023-03-14T04:01:13;7.45;;;1.55;;
39190;SDS011;24916;51.676;6.614;2023-03-14T04:03:38;8.25;;;1.50;;
39190;SDS011;24916;51.676;6.614;2023-03-14T04:06:07;6.13;;;1.85;;
39190;SDS011;24916;51.676;6.614;2023-03-14T04:08:33;5.95;;;1.52;;
39190;SDS011;24916;51.676;6.614;2023-03-14T04:10:59;8.27;;;1.50;;
39190;SDS011;24916;51.676;6.614;2023-03-14T04:13:24;8.55;;;1.20;;
39190;SDS011;24916;51.676;6.614;2023-03-14T04:15:50;7.55;;;1.50;;
39190;SDS011;24916;51.676;6.614;2023-03-14T04:18:17;6.70;;;1.40;;
39190;SDS011;24916;51.676;6.614;2023-03-14T04:20:42;7.72;;;1.38;;
39190;SDS011;24916;51.676;6.614;2023-03-14T04:23:07;5.20;;;1.20;;
39190;SDS011;24916;51.676;6.614;2023-03-14T04:25:32;8.98;;;1.40;;
39190;SDS011;24916;51.676;6.614;2023-03-14T04:27:57;10.43;;;1.33;;
39190;SDS011;24916;51.676;6.614;2023-03-14T04:30:23;5.55;;;1.20;;
39190;SDS011;24916;51.676;6.614;2023-03-14T04:32:48;7.85;;;2.08;;
39190;SDS011;24916;51.676;6.614;2023-03-14T04:35:13;10.23;;;1.60;;
39190;SDS011;24916;51.676;6.614;2023-03-14T04:37:38;7.88;;;1.90;;
39190;SDS011;24916;51.676;6.614;2023-03-14T04:40:05;10.07;;;1.85;;
39190;SDS011;24916;51.676;6.614;2023-03-14T04:42:31;8.32;;;1.50;;
39190;SDS011;24916;51.676;6.614;2023-03-14T04:44:56;6.75;;;1.00;;
39190;SDS011;24916;51.676;6.614;2023-03-14T04:47:22;7.05;;;1.52;;
39190;SDS011;24916;51.676;6.614;2023-03-14T04:49:47;5.88;;;1.30;;
39190;SDS011;24916;51.676;6.614;2023-03-14T04:52:12;4.68;;;1.10;;
39190;SDS011;24916;51.676;6.614;2023-03-14T04:54:37;5.45;;;1.30;;
39190;SDS011;24916;51.676;6.614;2023-03-14T04:57:02;5.15;;;0.98;;
39190;SDS011;24916;51.676;6.614;2023-03-14T04:59:28;7.30;;;1.35;;
39190;SDS011;24916;51.676;6.614;2023-03-14T05:01:53;9.55;;;1.35;;
39190;SDS011;24916;51.676;6.614;2023-03-14T05:04:18;8.40;;;1.25;;
39190;SDS011;24916;51.676;6.614;2023-03-14T05:06:43;10.45;;;1.33;;
39190;SDS011;24916;51.676;6.614;2023-03-14T05:09:09;4.57;;;1.27;;
39190;SDS011;24916;51.676;6.614;2023-03-14T05:11:34;6.72;;;1.27;;
39190;SDS011;24916;51.676;6.614;2023-03-14T05:13:59;5.18;;;1.38;;
39190;SDS011;24916;51.676;6.614;2023-03-14T05:16:25;11.25;;;1.27;;
39190;SDS011;24916;51.676;6.614;2023-03-14T05:18:50;4.32;;;0.85;;
39190;SDS011;24916;51.676;6.614;2023-03-14T05:21:15;5.82;;;0.95;;
39190;SDS011;24916;51.676;6.614;2023-03-14T05:23:41;4.28;;;1.00;;
39190;SDS011;24916;51.676;6.614;2023-03-14T05:26:06;4.82;;;0.90;;
39190;SDS011;24916;51.676;6.614;2023-03-14T05:28:31;1.73;;;0.60;;
39190;SDS011;24916;51.676;6.614;2023-03-14T05:30:56;4.80;;;0.75;;
39190;SDS011;24916;51.676;6.614;2023-03-14T05:33:22;3.33;;;0.55;;
39190;SDS011;24916;51.676;6.614;2023-03-14T05:35:47;2.75;;;0.38;;
39190;SDS011;24916;51.676;6.614;2023-03-14T05:38:12;4.30;;;0.45;;
39190;SDS011;24916;51.676;6.614;2023-03-14T05:40:37;3.40;;;0.60;;
39190;SDS011;24916;51.676;6.614;2023-03-14T05:43:02;2.88;;;0.40;;
39190;SDS011;24916;51.676;6.614;2023-03-14T05:45:28;2.60;;;0.50;;
39190;SDS011;24916;51.676;6.614;2023-03-14T05:47:53;1.40;;;0.28;;
39190;SDS011;24916;51.676;6.614;2023-03-14T05:50:18;0.98;;;0.30;;
39190;SDS011;24916;51.676;6.614;2023-03-14T05:52:43;5.22;;;0.70;;
39190;SDS011;24916;51.676;6.614;2023-03-14T05:55:08;2.15;;;0.70;;
39190;SDS011;24916;51.676;6.614;2023-03-14T05:57:34;2.72;;;0.55;;
39190;SDS011;24916;51.676;6.614;2023-03-14T05:59:59;1.95;;;0.73;;
39190;SDS011;24916;51.676;6.614;2023-03-14T06:02:24;6.90;;;4.45;;
39190;SDS011;24916;51.676;6.614;2023-03-14T06:04:49;7.38;;;2.30;;
39190;SDS011;24916;51.676;6.614;2023-03-14T06:07:14;3.38;;;0.75;;
39190;SDS011;24916;51.676;6.614;2023-03-14T06:09:40;2.92;;;1.02;;
39190;SDS011;24916;51.676;6.614;2023-03-14T06:12:05;2.72;;;1.05;;
39190;SDS011;24916;51.676;6.614;2023-03-14T06:14:30;4.22;;;1.10;;
39190;SDS011;24916;51.676;6.614;2023-03-14T06:16:55;3.97;;;1.17;;
39190;SDS011;24916;51.676;6.614;2023-03-14T06:19:21;2.28;;;1.08;;
39190;SDS011;24916;51.676;6.614;2023-03-14T06:21:46;4.63;;;1.13;;
39190;SDS011;24916;51.676;6.614;2023-03-14T06:24:11;2.75;;;1.15;;
39190;SDS011;24916;51.676;6.614;2023-03-14T06:26:37;3.08;;;1.15;;
39190;SDS011;24916;51.676;6.614;2023-03-14T06:29:02;2.25;;;1.15;;
39190;SDS011;24916;51.676;6.614;2023-03-14T06:31:31;3.80;;;1.40;;
39190;SDS011;24916;51.676;6.614;2023-03-14T06:33:56;2.80;;;1.30;;
39190;SDS011;24916;51.676;6.614;2023-03-14T06:36:22;3.08;;;1.33;;
39190;SDS011;24916;51.676;6.614;2023-03-14T06:38:47;2.97;;;1.30;;
39190;SDS011;24916;51.676;6.614;2023-03-14T06:41:12;3.00;;;1.20;;
39190;SDS011;24916;51.676;6.614;2023-03-14T06:43:37;1.58;;;1.00;;
39190;SDS011;24916;51.676;6.614;2023-03-14T06:46:03;6.47;;;1.70;;
39190;SDS011;24916;51.676;6.614;2023-03-14T06:48:28;3.13;;;1.20;;
39190;SDS011;24916;51.676;6.614;2023-03-14T06:50:53;6.35;;;2.92;;
39190;SDS011;24916;51.676;6.614;2023-03-14T06:53:18;9.23;;;4.88;;
39190;SDS011;24916;51.676;6.614;2023-03-14T06:55:43;3.95;;;1.80;;
39190;SDS011;24916;51.676;6.614;2023-03-14T06:58:10;3.25;;;1.58;;
39190;SDS011;24916;51.676;6.614;2023-03-14T07:00:36;5.07;;;1.67;;
39190;SDS011;24916;51.676;6.614;2023-03-14T07:03:01;6.47;;;1.60;;
39190;SDS011;24916;51.676;6.614;2023-03-14T07:05:27;3.13;;;1.70;;
39190;SDS011;24916;51.676;6.614;2023-03-14T07:07:52;4.15;;;1.42;;
39190;SDS011;24916;51.676;6.614;2023-03-14T07:10:17;2.92;;;1.30;;
39190;SDS011;24916;51.676;6.614;2023-03-14T07:12:42;1.45;;;1.20;;
39190;SDS011;24916;51.676;6.614;2023-03-14T07:15:08;4.20;;;1.58;;
39190;SDS011;24916;51.676;6.614;2023-03-14T07:17:33;3.70;;;1.23;;
39190;SDS011;24916;51.676;6.614;2023-03-14T07:19:58;2.08;;;1.23;;
39190;SDS011;24916;51.676;6.614;2023-03-14T07:22:24;1.75;;;1.10;;
39190;SDS011;24916;51.676;6.614;2023-03-14T07:24:49;1.33;;;0.90;;
39190;SDS011;24916;51.676;6.614;2023-03-14T07:27:14;0.85;;;0.80;;
39190;SDS011;24916;51.676;6.614;2023-03-14T07:29:39;3.55;;;1.33;;
39190;SDS011;24916;51.676;6.614;2023-03-14T07:32:05;2.08;;;1.23;;
39190;SDS011;24916;51.676;6.614;2023-03-14T07:34:30;1.98;;;1.42;;
39190;SDS011;24916;51.676;6.614;2023-03-14T07:36:55;3.30;;;1.55;;
39190;SDS011;24916;51.676;6.614;2023-03-14T07:39:21;2.97;;;1.50;;
39190;SDS011;24916;51.676;6.614;2023-03-14T07:41:46;1.42;;;0.60;;
39190;SDS011;24916;51.676;6.614;2023-03-14T07:44:11;1.08;;;0.93;;
39190;SDS011;24916;51.676;6.614;2023-03-14T07:46:36;7.75;;;1.10;;
39190;SDS011;24916;51.676;6.614;2023-03-14T07:49:01;1.85;;;1.02;;
39190;SDS011;24916;51.676;6.614;2023-03-14T07:51:27;3.40;;;1.17;;
39190;SDS011;24916;51.676;6.614;2023-03-14T07:53:52;1.75;;;0.73;;
39190;SDS011;24916;51.676;6.614;2023-03-14T07:56:17;1.23;;;1.13;;
39190;SDS011;24916;51.676;6.614;2023-03-14T07:58:42;2.00;;;1.08;;
39190;SDS011;24916;51.676;6.614;2023-03-14T08:01:08;1.95;;;0.90;;
39190;SDS011;24916;51.676;6.614;2023-03-14T08:03:33;2.30;;;0.95;;
39190;SDS011;24916;51.676;6.614;2023-03-14T08:05:58;1.60;;;0.90;;
39190;SDS011;24916;51.676;6.614;2023-03-14T08:08:23;3.70;;;1.10;;
39190;SDS011;24916;51.676;6.614;2023-03-14T08:10:49;1.45;;;1.08;;
39190;SDS011;24916;51.676;6.614;2023-03-14T08:13:14;2.90;;;1.40;;
39190;SDS011;24916;51.676;6.614;2023-03-14T08:15:39;3.30;;;1.70;;
39190;SDS011;24916;51.676;6.614;2023-03-14T08:18:05;1.88;;;1.17;;
39190;SDS011;24916;51.676;6.614;2023-03-14T08:20:30;3.60;;;2.40;;
39190;SDS011;24916;51.676;6.614;2023-03-14T08:22:59;4.78;;;2.20;;
39190;SDS011;24916;51.676;6.614;2023-03-14T08:25:25;3.03;;;1.50;;
39190;SDS011;24916;51.676;6.614;2023-03-14T08:27:50;7.40;;;5.60;;
39190;SDS011;24916;51.676;6.614;2023-03-14T08:30:16;9.25;;;5.80;;
39190;SDS011;24916;51.676;6.614;2023-03-14T08:32:41;5.85;;;3.05;;
39190;SDS011;24916;51.676;6.614;2023-03-14T08:35:07;1.80;;;1.10;;
39190;SDS011;24916;51.676;6.614;2023-03-14T08:37:32;2.33;;;1.30;;
39190;SDS011;24916;51.676;6.614;2023-03-14T08:39:58;3.00;;;1.58;;
39190;SDS011;24916;51.676;6.614;2023-03-14T08:42:23;3.03;;;1.65;;
39190;SDS011;24916;51.676;6.614;2023-03-14T08:44:48;4.45;;;2.70;;
39190;SDS011;24916;51.676;6.614;2023-03-14T08:47:15;3.83;;;1.80;;
39190;SDS011;24916;51.676;6.614;2023-03-14T08:49:40;2.83;;;1.00;;
39190;SDS011;24916;51.676;6.614;2023-03-14T08:52:05;2.20;;;0.90;;
39190;SDS011;24916;51.676;6.614;2023-03-14T08:54:31;5.43;;;2.28;;
39190;SDS011;24916;51.676;6.614;2023-03-14T08:56:56;7.22;;;4.00;;
39190;SDS011;24916;51.676;6.614;2023-03-14T08:59:22;4.15;;;2.20;;
39190;SDS011;24916;51.676;6.614;2023-03-14T09:01:47;5.78;;;2.45;;
39190;SDS011;24916;51.676;6.614;2023-03-14T09:04:12;2.67;;;1.50;;
39190;SDS011;24916;51.676;6.614;2023-03-14T09:06:38;6.13;;;2.45;;
39190;SDS011;24916;51.676;6.614;2023-03-14T09:09:03;3.45;;;1.83;;
39190;SDS011;24916;51.676;6.614;2023-03-14T09:11:29;1.80;;;0.50;;
39190;SDS011;24916;51.676;6.614;2023-03-14T09:13:54;1.27;;;0.80;;
39190;SDS011;24916;51.676;6.614;2023-03-14T09:16:19;1.40;;;0.50;;
39190;SDS011;24916;51.676;6.614;2023-03-14T09:18:44;3.35;;;1.15;;
39190;SDS011;24916;51.676;6.614;2023-03-14T09:21:09;3.58;;;1.35;;
39190;SDS011;24916;51.676;6.614;2023-03-14T09:23:35;2.38;;;0.80;;
39190;SDS011;24916;51.676;6.614;2023-03-14T09:26:00;1.77;;;0.55;;
39190;SDS011;24916;51.676;6.614;2023-03-14T09:28:26;2.00;;;1.17;;
39190;SDS011;24916;51.676;6.614;2023-03-14T09:30:51;2.15;;;1.25;;
39190;SDS011;24916;51.676;6.614;2023-03-14T09:33:17;1.98;;;0.88;;
39190;SDS011;24916;51.676;6.614;2023-03-14T09:35:42;0.82;;;0.43;;
39190;SDS011;24916;51.676;6.614;2023-03-14T09:38:07;1.88;;;0.60;;
39190;SDS011;24916;51.676;6.614;2023-03-14T09:40:36;0.90;;;0.57;;
39190;SDS011;24916;51.676;6.614;2023-03-14T09:43:02;1.90;;;0.65;;
39190;SDS011;24916;51.676;6.614;2023-03-14T09:45:29;2.90;;;0.70;;
39190;SDS011;24916;51.676;6.614;2023-03-14T09:47:56;1.58;;;0.90;;
39190;SDS011;24916;51.676;6.614;2023-03-14T09:50:22;1.98;;;0.90;;
39190;SDS011;24916;51.676;6.614;2023-03-14T09:52:49;2.90;;;0.50;;
39190;SDS011;24916;51.676;6.614;2023-03-14T09:55:19;0.55;;;0.30;;
39190;SDS011;24916;51.676;6.614;2023-03-14T09:57:46;3.58;;;0.65;;
39190;SDS011;24916;51.676;6.614;2023-03-14T10:02:40;4.20;;;0.95;;
39190;SDS011;24916;51.676;6.614;2023-03-14T10:05:17;2.05;;;0.60;;
39190;SDS011;24916;51.676;6.614;2023-03-14T10:07:43;3.05;;;0.75;;
39190;SDS011;24916;51.676;6.614;2023-03-14T10:10:26;2.70;;;0.60;;
39190;SDS011;24916;51.676;6.614;2023-03-14T10:12:59;3.05;;;0.60;;
39190;SDS011;24916;51.676;6.614;2023-03-14T10:15:26;5.95;;;0.95;;
39190;SDS011;24916;51.676;6.614;2023-03-14T10:17:52;2.53;;;0.60;;
39190;SDS011;24916;51.676;6.614;2023-03-14T10:20:36;4.30;;;0.65;;
39190;SDS011;24916;51.676;6.614;2023-03-14T10:23:05;5.63;;;0.60;;
39190;SDS011;24916;51.676;6.614;2023-03-14T10:25:33;1.52;;;0.68;;
39190;SDS011;24916;51.676;6.614;2023-03-14T10:27:58;3.95;;;0.85;;
39190;SDS011;24916;51.676;6.614;2023-03-14T10:33:37;2.92;;;0.60;;
39190;SDS011;24916;51.676;6.614;2023-03-14T10:36:17;1.73;;;0.70;;
39190;SDS011;24916;51.676;6.614;2023-03-14T10:38:40;4.47;;;0.30;;
39190;SDS011;24916;51.676;6.614;2023-03-14T10:41:24;2.78;;;0.52;;
39190;SDS011;24916;51.676;6.614;2023-03-14T10:43:50;1.33;;;0.30;;
39190;SDS011;24916;51.676;6.614;2023-03-14T10:46:17;3.33;;;0.52;;
39190;SDS011;24916;51.676;6.614;2023-03-14T10:48:42;3.83;;;0.68;;
39190;SDS011;24916;51.676;6.614;2023-03-14T10:53:40;3.53;;;0.40;;
39190;SDS011;24916;51.676;6.614;2023-03-14T10:56:06;5.43;;;0.80;;
39190;SDS011;24916;51.676;6.614;2023-03-14T10:58:33;2.55;;;0.50;;
39190;SDS011;24916;51.676;6.614;2023-03-14T11:01:02;2.47;;;0.55;;
39190;SDS011;24916;51.676;6.614;2023-03-14T11:03:31;1.10;;;0.40;;
39190;SDS011;24916;51.676;6.614;2023-03-14T11:08:52;1.45;;;0.38;;
39190;SDS011;24916;51.676;6.614;2023-03-14T11:11:22;7.07;;;0.57;;
39190;SDS011;24916;51.676;6.614;2023-03-14T11:13:54;4.65;;;0.77;;
39190;SDS011;24916;51.676;6.614;2023-03-14T11:16:25;2.25;;;0.50;;
39190;SDS011;24916;51.676;6.614;2023-03-14T11:26:41;6.07;;;1.45;;
39190;SDS011;24916;51.676;6.614;2023-03-14T11:29:30;2.95;;;0.73;;
39190;SDS011;24916;51.676;6.614;2023-03-14T11:31:53;3.15;;;1.05;;
39190;SDS011;24916;51.676;6.614;2023-03-14T11:34:40;3.90;;;0.77;;
39190;SDS011;24916;51.676;6.614;2023-03-14T11:37:29;4.68;;;0.70;;
39190;SDS011;24916;51.676;6.614;2023-03-14T11:39:59;2.67;;;0.60;;
39190;SDS011;24916;51.676;6.614;2023-03-14T11:42:25;3.13;;;0.43;;
39190;SDS011;24916;51.676;6.614;2023-03-14T11:44:51;6.60;;;1.17;;
39190;SDS011;24916;51.676;6.614;2023-03-14T11:54:51;8.32;;;1.52;;
39190;SDS011;24916;51.676;6.614;2023-03-14T11:57:18;6.40;;;0.90;;
39190;SDS011;24916;51.676;6.614;2023-03-14T12:07:25;14.68;;;1.80;;
39190;SDS011;24916;51.676;6.614;2023-03-14T12:09:51;9.93;;;1.73;;
39190;SDS011;24916;51.676;6.614;2023-03-14T12:12:18;8.27;;;1.73;;
39190;SDS011;24916;51.676;6.614;2023-03-14T12:14:52;12.85;;;2.35;;
39190;SDS011;24916;51.676;6.614;2023-03-14T12:19:43;17.17;;;1.87;;
39190;SDS011;24916;51.676;6.614;2023-03-14T12:24:35;9.37;;;1.80;;
39190;SDS011;24916;51.676;6.614;2023-03-14T12:27:02;14.15;;;2.28;;
39190;SDS011;24916;51.676;6.614;2023-03-14T12:29:28;14.50;;;2.50;;
39190;SDS011;24916;51.676;6.614;2023-03-14T12:34:29;16.70;;;2.33;;
39190;SDS011;24916;51.676;6.614;2023-03-14T12:37:14;19.15;;;2.83;;
39190;SDS011;24916;51.676;6.614;2023-03-14T12:44:49;14.55;;;1.75;;
39190;SDS011;24916;51.676;6.614;2023-03-14T12:49:48;13.85;;;2.20;;
39190;SDS011;24916;51.676;6.614;2023-03-14T12:52:16;21.42;;;2.65;;
39190;SDS011;24916;51.676;6.614;2023-03-14T12:57:20;16.15;;;2.13;;
39190;SDS011;24916;51.676;6.614;2023-03-14T12:59:57;16.00;;;2.60;;
39190;SDS011;24916;51.676;6.614;2023-03-14T13:04:52;12.05;;;2.50;;
39190;SDS011;24916;51.676;6.614;2023-03-14T13:09:51;22.73;;;2.95;;
39190;SDS011;24916;51.676;6.614;2023-03-14T13:12:17;17.63;;;2.60;;
39190;SDS011;24916;51.676;6.614;2023-03-14T13:14:43;14.73;;;2.05;;
39190;SDS011;24916;51.676;6.614;2023-03-14T13:17:12;13.85;;;2.08;;
39190;SDS011;24916;51.676;6.614;2023-03-14T13:19:37;13.00;;;2.88;;
39190;SDS011;24916;51.676;6.614;2023-03-14T13:22:04;15.38;;;2.70;;
39190;SDS011;24916;51.676;6.614;2023-03-14T13:24:32;12.15;;;2.10;;
39190;SDS011;24916;51.676;6.614;2023-03-14T13:26:57;13.07;;;2.20;;
39190;SDS011;24916;51.676;6.614;2023-03-14T13:32:01;11.17;;;2.10;;
39190;SDS011;24916;51.676;6.614;2023-03-14T13:34:31;9.45;;;1.80;;
39190;SDS011;24916;51.676;6.614;2023-03-14T13:36:56;11.32;;;2.03;;
39190;SDS011;24916;51.676;6.614;2023-03-14T13:39:23;7.60;;;1.60;;
39190;SDS011;24916;51.676;6.614;2023-03-14T13:41:53;12.82;;;2.05;;
39190;SDS011;24916;51.676;6.614;2023-03-14T13:44:26;7.55;;;1.67;;
39190;SDS011;24916;51.676;6.614;2023-03-14T13:46:52;10.10;;;1.77;;
39190;SDS011;24916;51.676;6.614;2023-03-14T13:49:22;9.20;;;1.55;;
39190;SDS011;24916;51.676;6.614;2023-03-14T13:51:48;8.23;;;1.45;;
39190;SDS011;24916;51.676;6.614;2023-03-14T13:54:14;9.65;;;2.13;;
39190;SDS011;24916;51.676;6.614;2023-03-14T13:56:40;9.00;;;1.92;;
39190;SDS011;24916;51.676;6.614;2023-03-14T13:59:20;7.80;;;1.70;;
39190;SDS011;24916;51.676;6.614;2023-03-14T14:01:45;9.40;;;1.38;;
39190;SDS011;24916;51.676;6.614;2023-03-14T14:04:15;7.05;;;1.50;;
39190;SDS011;24916;51.676;6.614;2023-03-14T14:06:47;8.38;;;1.63;;
39190;SDS011;24916;51.676;6.614;2023-03-14T14:09:15;6.57;;;1.23;;
39190;SDS011;24916;51.676;6.614;2023-03-14T14:11:48;14.80;;;1.85;;
39190;SDS011;24916;51.676;6.614;2023-03-14T14:14:18;6.55;;;1.23;;
39190;SDS011;24916;51.676;6.614;2023-03-14T14:16:44;5.68;;;1.60;;
39190;SDS011;24916;51.676;6.614;2023-03-14T14:19:09;5.50;;;1.33;;
39190;SDS011;24916;51.676;6.614;2023-03-14T14:21:35;6.68;;;1.25;;
39190;SDS011;24916;51.676;6.614;2023-03-14T14:24:00;9.85;;;1.73;;
39190;SDS011;24916;51.676;6.614;2023-03-14T14:26:26;6.80;;;1.58;;
39190;SDS011;24916;51.676;6.614;2023-03-14T14:28:58;7.13;;;1.48;;
39190;SDS011;24916;51.676;6.614;2023-03-14T14:31:23;13.40;;;1.77;;
39190;SDS011;24916;51.676;6.614;2023-03-14T14:36:19;7.85;;;1.55;;
39190;SDS011;24916;51.676;6.614;2023-03-14T14:38:49;10.25;;;1.48;;
39190;SDS011;24916;51.676;6.614;2023-03-14T14:41:15;5.22;;;1.27;;
39190;SDS011;24916;51.676;6.614;2023-03-14T14:43:40;5.40;;;1.23;;
39190;SDS011;24916;51.676;6.614;2023-03-14T14:46:06;8.00;;;1.23;;
39190;SDS011;24916;51.676;6.614;2023-03-14T14:48:35;7.20;;;1.70;;
39190;SDS011;24916;51.676;6.614;2023-03-14T14:51:02;9.50;;;1.83;;
39190;SDS011;24916;51.676;6.614;2023-03-14T14:53:39;6.85;;;1.63;;
39190;SDS011;24916;51.676;6.614;2023-03-14T14:56:17;5.25;;;1.40;;
39190;SDS011;24916;51.676;6.614;2023-03-14T14:58:46;9.95;;;1.98;;
39190;SDS011;24916;51.676;6.614;2023-03-14T15:01:12;9.20;;;1.50;;
39190;SDS011;24916;51.676;6.614;2023-03-14T15:03:41;12.13;;;2.28;;
39190;SDS011;24916;51.676;6.614;2023-03-14T15:06:08;6.18;;;1.05;;
39190;SDS011;24916;51.676;6.614;2023-03-14T15:08:34;7.68;;;1.20;;
39190;SDS011;24916;51.676;6.614;2023-03-14T15:10:59;4.47;;;1.15;;
39190;SDS011;24916;51.676;6.614;2023-03-14T15:13:24;6.95;;;1.20;;
39190;SDS011;24916;51.676;6.614;2023-03-14T15:15:50;8.98;;;1.52;;
39190;SDS011;24916;51.676;6.614;2023-03-14T15:18:21;3.50;;;0.80;;
39190;SDS011;24916;51.676;6.614;2023-03-14T15:20:46;6.70;;;1.25;;
39190;SDS011;24916;51.676;6.614;2023-03-14T15:23:12;3.50;;;1.08;;
39190;SDS011;24916;51.676;6.614;2023-03-14T15:25:38;8.85;;;1.35;;
39190;SDS011;24916;51.676;6.614;2023-03-14T15:28:08;5.90;;;1.20;;
39190;SDS011;24916;51.676;6.614;2023-03-14T15:30:36;6.47;;;1.25;;
39190;SDS011;24916;51.676;6.614;2023-03-14T15:33:01;6.30;;;1.15;;
39190;SDS011;24916;51.676;6.614;2023-03-14T15:35:26;6.13;;;1.30;;
39190;SDS011;24916;51.676;6.614;2023-03-14T15:37:51;3.40;;;0.82;;
39190;SDS011;24916;51.676;6.614;2023-03-14T15:40:17;7.30;;;1.30;;
39190;SDS011;24916;51.676;6.614;2023-03-14T15:42:43;3.72;;;0.95;;
39190;SDS011;24916;51.676;6.614;2023-03-14T15:45:08;3.47;;;0.90;;
39190;SDS011;24916;51.676;6.614;2023-03-14T15:47:34;3.75;;;0.80;;
39190;SDS011;24916;51.676;6.614;2023-03-14T15:49:59;4.45;;;1.08;;
39190;SDS011;24916;51.676;6.614;2023-03-14T15:52:25;5.95;;;1.15;;
39190;SDS011;24916;51.676;6.614;2023-03-14T15:54:50;8.32;;;1.35;;